MMSD/SJD METAR and TAF weather

Enter ICAO airport designator
Station Type Date Time Source
MMSD METAR 2022/01/19 18:51 UTC NOAA

MMSD 191851Z 30005KT 12SM OVC220 27/09 A3004 RMK 8/007


Station Type Date Time Source
MMSD Decoded METAR 2022/01/19 18:51 UTC NOAA

San Jose Del Cabo , Mexico (MMSD) 23-09N 109-42W
Jan 19, 2022 - 01:51 PM EST / 2022.01.19 1851 UTC
Wind: from the WNW (300 degrees) at 6 MPH (5 KT):0
Visibility: 12 mile(s):0
Sky conditions: overcast
Temperature: 80 F (27 C)
Dew Point: 48 F (9 C)
Relative Humidity: 32%
Pressure (altimeter): 30.04 in. Hg (1017 hPa)
ob: MMSD 191851Z 30005KT 12SM OVC220 27/09 A3004 RMK 8/007
cycle: 19

Station Type Date Time Source
MMSD TAF 2022/01/19 18:53 UTC NOAA

TAF MMSD 191641Z 1918/2018 14010KT P6SM BKN200
FM200300 35004KT P6SM BKN180
FM201600 10010KT P6SM BKN130 BKN20

Example: see airport list